sensor_id;sensor_type;location;lat;lon;timestamp;pressure;altitude;pressure_sealevel;temperature;humidity
76627;BME280;65519;53.230;10.390;2023-08-30T00:01:49;100469.38;;;14.68;83.47
76627;BME280;65519;53.230;10.390;2023-08-30T00:04:14;100462.47;;;14.71;82.69
76627;BME280;65519;53.230;10.390;2023-08-30T00:06:40;100465.81;;;14.68;82.99
76627;BME280;65519;53.230;10.390;2023-08-30T00:09:05;100474.03;;;14.68;82.50
76627;BME280;65519;53.230;10.390;2023-08-30T00:11:30;100468.31;;;14.64;82.66
76627;BME280;65519;53.230;10.390;2023-08-30T00:14:06;100469.41;;;14.49;83.87
76627;BME280;65519;53.230;10.390;2023-08-30T00:16:36;100467.78;;;14.48;83.87
76627;BME280;65519;53.230;10.390;2023-08-30T00:19:01;100471.56;;;14.52;83.87
76627;BME280;65519;53.230;10.390;2023-08-30T00:21:27;100469.56;;;14.39;84.68
76627;BME280;65519;53.230;10.390;2023-08-30T00:23:53;100462.75;;;14.37;84.60
76627;BME280;65519;53.230;10.390;2023-08-30T00:26:18;100471.34;;;14.30;85.26
76627;BME280;65519;53.230;10.390;2023-08-30T00:28:44;100473.38;;;14.24;85.43
76627;BME280;65519;53.230;10.390;2023-08-30T00:31:09;100476.47;;;14.18;85.56
76627;BME280;65519;53.230;10.390;2023-08-30T00:33:35;100478.63;;;14.21;85.27
76627;BME280;65519;53.230;10.390;2023-08-30T00:36:00;100464.94;;;14.02;85.42
76627;BME280;65519;53.230;10.390;2023-08-30T00:38:27;100466.78;;;14.07;85.48
76627;BME280;65519;53.230;10.390;2023-08-30T00:40:53;100469.16;;;14.13;85.16
76627;BME280;65519;53.230;10.390;2023-08-30T00:43:20;100471.06;;;14.13;85.05
76627;BME280;65519;53.230;10.390;2023-08-30T00:45:46;100466.72;;;14.12;85.56
76627;BME280;65519;53.230;10.390;2023-08-30T00:48:13;100474.63;;;14.13;85.63
76627;BME280;65519;53.230;10.390;2023-08-30T00:50:40;100476.78;;;14.16;84.61
76627;BME280;65519;53.230;10.390;2023-08-30T00:53:07;100468.56;;;13.98;85.16
76627;BME280;65519;53.230;10.390;2023-08-30T00:55:34;100470.88;;;13.91;85.43
76627;BME280;65519;53.230;10.390;2023-08-30T00:58:00;100462.69;;;13.85;86.43
76627;BME280;65519;53.230;10.390;2023-08-30T01:00:31;100465.81;;;13.79;86.28
76627;BME280;65519;53.230;10.390;2023-08-30T01:02:57;100464.88;;;13.70;86.21
76627;BME280;65519;53.230;10.390;2023-08-30T01:05:23;100461.22;;;13.74;86.14
76627;BME280;65519;53.230;10.390;2023-08-30T01:07:51;100451.47;;;13.68;86.20
76627;BME280;65519;53.230;10.390;2023-08-30T01:10:18;100447.38;;;13.66;86.18
76627;BME280;65519;53.230;10.390;2023-08-30T01:12:49;100443.28;;;13.63;86.10
76627;BME280;65519;53.230;10.390;2023-08-30T01:15:19;100447.91;;;13.49;86.53
76627;BME280;65519;53.230;10.390;2023-08-30T01:17:47;100449.66;;;13.40;86.35
76627;BME280;65519;53.230;10.390;2023-08-30T01:20:15;100445.34;;;13.34;87.03
76627;BME280;65519;53.230;10.390;2023-08-30T01:23:15;100441.94;;;13.42;86.63
76627;BME280;65519;53.230;10.390;2023-08-30T01:28:29;100436.59;;;13.32;86.51
76627;BME280;65519;53.230;10.390;2023-08-30T01:30:56;100435.56;;;13.28;87.02
76627;BME280;65519;53.230;10.390;2023-08-30T01:33:24;100432.31;;;13.26;87.37
76627;BME280;65519;53.230;10.390;2023-08-30T01:35:57;100424.63;;;13.28;86.72
76627;BME280;65519;53.230;10.390;2023-08-30T01:38:26;100427.53;;;13.36;86.02
76627;BME280;65519;53.230;10.390;2023-08-30T01:40:56;100431.53;;;13.20;86.53
76627;BME280;65519;53.230;10.390;2023-08-30T01:43:23;100422.63;;;13.09;86.78
76627;BME280;65519;53.230;10.390;2023-08-30T01:45:50;100431.47;;;13.01;87.86
76627;BME280;65519;53.230;10.390;2023-08-30T01:48:17;100425.72;;;13.03;87.39
76627;BME280;65519;53.230;10.390;2023-08-30T01:50:44;100419.13;;;13.04;87.49
76627;BME280;65519;53.230;10.390;2023-08-30T01:53:13;100430.38;;;13.02;87.50
76627;BME280;65519;53.230;10.390;2023-08-30T01:55:39;100431.88;;;13.19;86.39
76627;BME280;65519;53.230;10.390;2023-08-30T01:58:06;100429.09;;;12.95;87.89
76627;BME280;65519;53.230;10.390;2023-08-30T02:00:32;100430.44;;;12.97;87.52
76627;BME280;65519;53.230;10.390;2023-08-30T02:02:58;100420.94;;;12.90;88.09
76627;BME280;65519;53.230;10.390;2023-08-30T02:05:23;100424.44;;;12.95;88.05
76627;BME280;65519;53.230;10.390;2023-08-30T02:07:58;100429.09;;;12.95;89.01
76627;BME280;65519;53.230;10.390;2023-08-30T02:10:48;100427.78;;;12.87;88.47
76627;BME280;65519;53.230;10.390;2023-08-30T02:13:19;100424.91;;;13.02;88.03
76627;BME280;65519;53.230;10.390;2023-08-30T02:15:47;100429.44;;;12.88;89.23
76627;BME280;65519;53.230;10.390;2023-08-30T02:18:14;100429.09;;;12.95;88.60
76627;BME280;65519;53.230;10.390;2023-08-30T02:20:39;100425.06;;;12.87;89.32
76627;BME280;65519;53.230;10.390;2023-08-30T02:23:09;100423.91;;;12.93;88.91
76627;BME280;65519;53.230;10.390;2023-08-30T02:25:36;100423.91;;;12.93;88.11
76627;BME280;65519;53.230;10.390;2023-08-30T02:28:02;100428.22;;;12.99;87.36
76627;BME280;65519;53.230;10.390;2023-08-30T02:30:27;100419.09;;;12.85;89.06
76627;BME280;65519;53.230;10.390;2023-08-30T02:32:53;100423.75;;;12.85;88.88
76627;BME280;65519;53.230;10.390;2023-08-30T02:35:18;100420.59;;;12.96;88.14
76627;BME280;65519;53.230;10.390;2023-08-30T02:37:44;100419.53;;;12.92;88.65
76627;BME280;65519;53.230;10.390;2023-08-30T02:40:10;100418.44;;;12.93;87.94
76627;BME280;65519;53.230;10.390;2023-08-30T02:42:37;100419.38;;;12.84;88.30
76627;BME280;65519;53.230;10.390;2023-08-30T02:45:03;100419.09;;;12.85;88.85
76627;BME280;65519;53.230;10.390;2023-08-30T02:47:29;100426.13;;;12.91;89.28
76627;BME280;65519;53.230;10.390;2023-08-30T02:49:54;100422.84;;;12.89;89.42
76627;BME280;65519;53.230;10.390;2023-08-30T02:52:19;100423.56;;;12.76;90.97
76627;BME280;65519;53.230;10.390;2023-08-30T02:54:45;100410.28;;;12.88;89.89
76627;BME280;65519;53.230;10.390;2023-08-30T02:57:10;100406.44;;;12.89;88.66
76627;BME280;65519;53.230;10.390;2023-08-30T02:59:36;100406.41;;;12.94;87.63
76627;BME280;65519;53.230;10.390;2023-08-30T03:02:05;100407.03;;;12.86;86.85
76627;BME280;65519;53.230;10.390;2023-08-30T03:04:30;100417.50;;;12.79;87.87
76627;BME280;65519;53.230;10.390;2023-08-30T03:06:56;100419.53;;;12.68;88.04
76627;BME280;65519;53.230;10.390;2023-08-30T03:09:23;100416.56;;;12.65;87.57
76627;BME280;65519;53.230;10.390;2023-08-30T03:11:49;100414.16;;;12.58;88.05
76627;BME280;65519;53.230;10.390;2023-08-30T03:14:15;100406.75;;;12.64;88.18
76627;BME280;65519;53.230;10.390;2023-08-30T03:16:41;100406.25;;;12.57;89.78
76627;BME280;65519;53.230;10.390;2023-08-30T03:19:08;100401.06;;;12.55;89.26
76627;BME280;65519;53.230;10.390;2023-08-30T03:21:33;100402.66;;;12.61;89.47
76627;BME280;65519;53.230;10.390;2023-08-30T03:23:59;100405.56;;;12.70;89.44
76627;BME280;65519;53.230;10.390;2023-08-30T03:26:24;100407.94;;;12.76;88.32
76627;BME280;65519;53.230;10.390;2023-08-30T03:28:52;100410.50;;;12.68;87.47
76627;BME280;65519;53.230;10.390;2023-08-30T03:31:20;100417.69;;;12.64;88.79
76627;BME280;65519;53.230;10.390;2023-08-30T03:33:47;100413.66;;;12.80;88.20
76627;BME280;65519;53.230;10.390;2023-08-30T03:36:15;100398.94;;;12.76;87.43
76627;BME280;65519;53.230;10.390;2023-08-30T03:38:41;100400.97;;;12.65;87.40
76627;BME280;65519;53.230;10.390;2023-08-30T03:41:08;100404.84;;;12.59;87.41
76627;BME280;65519;53.230;10.390;2023-08-30T03:43:34;100396.03;;;12.38;88.10
76627;BME280;65519;53.230;10.390;2023-08-30T03:46:00;100398.50;;;12.40;87.86
76627;BME280;65519;53.230;10.390;2023-08-30T03:48:27;100392.31;;;12.29;87.59
76627;BME280;65519;53.230;10.390;2023-08-30T03:50:54;100390.44;;;12.25;87.28
76627;BME280;65519;53.230;10.390;2023-08-30T03:53:19;100395.97;;;12.15;88.09
76627;BME280;65519;53.230;10.390;2023-08-30T03:55:45;100391.88;;;12.17;87.93
76627;BME280;65519;53.230;10.390;2023-08-30T03:58:10;100391.63;;;12.14;88.45
76627;BME280;65519;53.230;10.390;2023-08-30T04:00:37;100398.50;;;12.11;89.19
76627;BME280;65519;53.230;10.390;2023-08-30T04:03:03;100403.09;;;12.16;88.51
76627;BME280;65519;53.230;10.390;2023-08-30T04:05:33;100394.13;;;12.10;88.56
76627;BME280;65519;53.230;10.390;2023-08-30T04:07:59;100392.88;;;12.26;87.97
76627;BME280;65519;53.230;10.390;2023-08-30T04:10:25;100389.41;;;12.16;88.14
76627;BME280;65519;53.230;10.390;2023-08-30T04:12:50;100390.25;;;12.16;89.36
76627;BME280;65519;53.230;10.390;2023-08-30T04:15:16;100369.22;;;12.12;89.96
76627;BME280;65519;53.230;10.390;2023-08-30T04:17:41;100373.22;;;11.90;91.85
76627;BME280;65519;53.230;10.390;2023-08-30T04:20:07;100380.41;;;12.15;90.98
76627;BME280;65519;53.230;10.390;2023-08-30T04:22:33;100376.09;;;12.09;90.83
76627;BME280;65519;53.230;10.390;2023-08-30T04:25:00;100378.94;;;11.94;91.84
76627;BME280;65519;53.230;10.390;2023-08-30T04:27:27;100371.78;;;12.03;91.85
76627;BME280;65519;53.230;10.390;2023-08-30T04:29:53;100365.66;;;12.16;90.63
76627;BME280;65519;53.230;10.390;2023-08-30T04:32:18;100366.75;;;12.15;90.93
76627;BME280;65519;53.230;10.390;2023-08-30T04:34:44;100358.59;;;12.10;91.35
76627;BME280;65519;53.230;10.390;2023-08-30T04:37:09;100363.44;;;12.18;90.64
76627;BME280;65519;53.230;10.390;2023-08-30T04:39:35;100360.66;;;12.23;90.05
76627;BME280;65519;53.230;10.390;2023-08-30T04:42:00;100352.97;;;12.25;89.96
76627;BME280;65519;53.230;10.390;2023-08-30T04:44:28;100357.41;;;12.21;89.55
76627;BME280;65519;53.230;10.390;2023-08-30T04:46:54;100352.97;;;12.25;90.23
76627;BME280;65519;53.230;10.390;2023-08-30T04:49:21;100351.59;;;12.28;90.49
76627;BME280;65519;53.230;10.390;2023-08-30T04:51:47;100351.78;;;12.36;90.11
76627;BME280;65519;53.230;10.390;2023-08-30T04:54:12;100352.78;;;12.46;88.76
76627;BME280;65519;53.230;10.390;2023-08-30T04:56:39;100349.56;;;12.38;89.47
76627;BME280;65519;53.230;10.390;2023-08-30T04:59:05;100347.19;;;12.32;89.90
76627;BME280;65519;53.230;10.390;2023-08-30T05:01:31;100350.22;;;12.30;89.29
76627;BME280;65519;53.230;10.390;2023-08-30T05:03:59;100357.31;;;12.31;89.65
76627;BME280;65519;53.230;10.390;2023-08-30T05:06:24;100358.25;;;12.46;89.20
76627;BME280;65519;53.230;10.390;2023-08-30T05:08:50;100352.06;;;12.35;90.16
76627;BME280;65519;53.230;10.390;2023-08-30T05:11:16;100349.25;;;12.16;90.39
76627;BME280;65519;53.230;10.390;2023-08-30T05:13:41;100356.72;;;12.05;90.43
76627;BME280;65519;53.230;10.390;2023-08-30T05:16:07;100365.09;;;12.19;90.76
76627;BME280;65519;53.230;10.390;2023-08-30T05:18:32;100358.94;;;12.32;89.49
76627;BME280;65519;53.230;10.390;2023-08-30T05:21:00;100356.28;;;12.22;90.29
76627;BME280;65519;53.230;10.390;2023-08-30T05:23:29;100353.34;;;12.19;90.53
76627;BME280;65519;53.230;10.390;2023-08-30T05:25:55;100347.88;;;12.19;90.62
76627;BME280;65519;53.230;10.390;2023-08-30T05:28:20;100348.09;;;12.22;90.49
76627;BME280;65519;53.230;10.390;2023-08-30T05:30:46;100342.75;;;12.36;90.73
76627;BME280;65519;53.230;10.390;2023-08-30T05:33:43;100347.78;;;12.53;90.07
76627;BME280;65519;53.230;10.390;2023-08-30T05:36:27;100356.03;;;12.48;91.34
76627;BME280;65519;53.230;10.390;2023-08-30T05:39:15;100349.44;;;12.54;90.92
76627;BME280;65519;53.230;10.390;2023-08-30T05:41:50;100342.50;;;12.61;90.65
76627;BME280;65519;53.230;10.390;2023-08-30T05:44:15;100346.97;;;12.52;90.66
76627;BME280;65519;53.230;10.390;2023-08-30T05:46:42;100350.34;;;12.68;90.25
76627;BME280;65519;53.230;10.390;2023-08-30T05:49:07;100344.66;;;12.64;91.21
76627;BME280;65519;53.230;10.390;2023-08-30T05:51:32;100356.50;;;12.78;91.02
76627;BME280;65519;53.230;10.390;2023-08-30T05:53:58;100355.63;;;12.83;91.06
76627;BME280;65519;53.230;10.390;2023-08-30T05:56:24;100358.69;;;13.00;91.19
76627;BME280;65519;53.230;10.390;2023-08-30T05:58:50;100357.00;;;12.86;91.36
76627;BME280;65519;53.230;10.390;2023-08-30T06:01:18;100352.88;;;13.07;90.65
76627;BME280;65519;53.230;10.390;2023-08-30T06:03:44;100358.94;;;13.04;91.41
76627;BME280;65519;53.230;10.390;2023-08-30T06:06:11;100354.34;;;12.99;91.42
76627;BME280;65519;53.230;10.390;2023-08-30T06:08:36;100349.59;;;12.86;90.67
76627;BME280;65519;53.230;10.390;2023-08-30T06:11:02;100349.88;;;12.85;91.69
76627;BME280;65519;53.230;10.390;2023-08-30T06:13:27;100346.19;;;12.94;90.94
76627;BME280;65519;53.230;10.390;2023-08-30T06:15:53;100338.97;;;13.03;90.75
76627;BME280;65519;53.230;10.390;2023-08-30T06:18:19;100345.03;;;13.00;90.74
76627;BME280;65519;53.230;10.390;2023-08-30T06:20:45;100335.69;;;13.01;91.01
76627;BME280;65519;53.230;10.390;2023-08-30T06:23:11;100337.19;;;13.18;90.34
76627;BME280;65519;53.230;10.390;2023-08-30T06:25:36;100344.72;;;13.26;89.98
76627;BME280;65519;53.230;10.390;2023-08-30T06:28:02;100333.31;;;13.37;89.97
76627;BME280;65519;53.230;10.390;2023-08-30T06:30:29;100327.75;;;13.42;90.15
76627;BME280;65519;53.230;10.390;2023-08-30T06:32:57;100335.75;;;13.58;90.01
76627;BME280;65519;53.230;10.390;2023-08-30T06:35:23;100333.75;;;13.63;89.14
76627;BME280;65519;53.230;10.390;2023-08-30T06:37:48;100328.72;;;13.70;89.16
76627;BME280;65519;53.230;10.390;2023-08-30T06:40:14;100334.09;;;13.75;90.06
76627;BME280;65519;53.230;10.390;2023-08-30T06:42:39;100320.34;;;13.80;90.43
76627;BME280;65519;53.230;10.390;2023-08-30T06:45:05;100327.25;;;13.92;88.96
76627;BME280;65519;53.230;10.390;2023-08-30T06:47:31;100321.59;;;14.02;87.83
76627;BME280;65519;53.230;10.390;2023-08-30T06:49:57;100320.09;;;14.09;88.02
76627;BME280;65519;53.230;10.390;2023-08-30T06:52:22;100319.38;;;14.17;88.06
76627;BME280;65519;53.230;10.390;2023-08-30T06:54:48;100317.09;;;14.24;87.73
76627;BME280;65519;53.230;10.390;2023-08-30T06:57:13;100315.06;;;14.30;88.59
76627;BME280;65519;53.230;10.390;2023-08-30T06:59:39;100312.75;;;14.37;88.43
76627;BME280;65519;53.230;10.390;2023-08-30T07:02:04;100307.78;;;14.39;87.86
76627;BME280;65519;53.230;10.390;2023-08-30T07:04:30;100312.28;;;14.49;88.10
76627;BME280;65519;53.230;10.390;2023-08-30T07:06:55;100305.94;;;14.62;87.25
76627;BME280;65519;53.230;10.390;2023-08-30T07:09:21;100304.94;;;14.72;86.94
76627;BME280;65519;53.230;10.390;2023-08-30T07:11:48;100304.84;;;14.77;87.02
76627;BME280;65519;53.230;10.390;2023-08-30T07:14:14;100306.13;;;14.93;87.42
76627;BME280;65519;53.230;10.390;2023-08-30T07:16:40;100311.44;;;15.03;86.42
76627;BME280;65519;53.230;10.390;2023-08-30T07:19:06;100307.31;;;15.14;86.26
76627;BME280;65519;53.230;10.390;2023-08-30T07:21:31;100313.72;;;15.23;85.54
76627;BME280;65519;53.230;10.390;2023-08-30T07:23:58;100308.97;;;15.38;84.47
76627;BME280;65519;53.230;10.390;2023-08-30T07:26:23;100307.00;;;15.52;84.00
76627;BME280;65519;53.230;10.390;2023-08-30T07:28:49;100296.00;;;15.65;84.60
76627;BME280;65519;53.230;10.390;2023-08-30T07:31:14;100303.59;;;15.68;84.03
76627;BME280;65519;53.230;10.390;2023-08-30T07:33:43;100299.00;;;15.78;83.76
76627;BME280;65519;53.230;10.390;2023-08-30T07:36:09;100308.09;;;15.87;83.36
76627;BME280;65519;53.230;10.390;2023-08-30T07:38:34;100298.44;;;15.89;82.93
76627;BME280;65519;53.230;10.390;2023-08-30T07:41:00;100299.03;;;16.09;81.78
76627;BME280;65519;53.230;10.390;2023-08-30T07:43:26;100304.88;;;16.16;81.75
76627;BME280;65519;53.230;10.390;2023-08-30T07:45:51;100292.78;;;16.25;81.64
76627;BME280;65519;53.230;10.390;2023-08-30T07:48:17;100302.22;;;16.33;82.26
76627;BME280;65519;53.230;10.390;2023-08-30T07:50:42;100307.44;;;16.43;81.43
76627;BME280;65519;53.230;10.390;2023-08-30T07:53:11;100298.91;;;16.53;80.94
76627;BME280;65519;53.230;10.390;2023-08-30T07:55:37;100304.41;;;16.53;80.83
76627;BME280;65519;53.230;10.390;2023-08-30T07:58:03;100299.38;;;16.55;79.76
76627;BME280;65519;53.230;10.390;2023-08-30T08:00:29;100310.81;;;16.71;79.26
76627;BME280;65519;53.230;10.390;2023-08-30T08:02:54;100305.00;;;16.81;77.83
76627;BME280;65519;53.230;10.390;2023-08-30T08:05:20;100309.06;;;16.84;76.91
76627;BME280;65519;53.230;10.390;2023-08-30T08:07:45;100300.19;;;17.04;76.07
76627;BME280;65519;53.230;10.390;2023-08-30T08:10:11;100299.06;;;17.05;75.42
76627;BME280;65519;53.230;10.390;2023-08-30T08:12:37;100304.56;;;17.05;74.37
76627;BME280;65519;53.230;10.390;2023-08-30T08:15:03;100305.84;;;16.99;74.28
76627;BME280;65519;53.230;10.390;2023-08-30T08:17:29;100302.31;;;17.24;73.58
76627;BME280;65519;53.230;10.390;2023-08-30T08:19:54;100307.84;;;17.24;73.34
76627;BME280;65519;53.230;10.390;2023-08-30T08:22:19;100312.72;;;17.27;74.30
76627;BME280;65519;53.230;10.390;2023-08-30T08:24:45;100316.75;;;17.38;72.47
76627;BME280;65519;53.230;10.390;2023-08-30T08:27:11;100311.75;;;17.40;71.80
76627;BME280;65519;53.230;10.390;2023-08-30T08:29:37;100307.50;;;17.43;72.78
76627;BME280;65519;53.230;10.390;2023-08-30T08:32:03;100308.34;;;17.52;72.00
76627;BME280;65519;53.230;10.390;2023-08-30T08:34:29;100314.66;;;17.44;70.69
76627;BME280;65519;53.230;10.390;2023-08-30T08:36:54;100303.47;;;17.58;71.16
76627;BME280;65519;53.230;10.390;2023-08-30T08:39:20;100308.53;;;17.73;69.12
76627;BME280;65519;53.230;10.390;2023-08-30T08:41:45;100303.59;;;17.96;69.83
76627;BME280;65519;53.230;10.390;2023-08-30T08:44:12;100308.16;;;18.00;69.59
76627;BME280;65519;53.230;10.390;2023-08-30T08:46:41;100310.56;;;18.02;68.72
76627;BME280;65519;53.230;10.390;2023-08-30T08:49:16;100300.84;;;17.96;69.13
76627;BME280;65519;53.230;10.390;2023-08-30T08:51:43;100311.56;;;17.88;68.33
76627;BME280;65519;53.230;10.390;2023-08-30T08:54:10;100314.97;;;18.03;68.19
76627;BME280;65519;53.230;10.390;2023-08-30T08:56:36;100313.00;;;18.03;67.40
76627;BME280;65519;53.230;10.390;2023-08-30T08:59:03;100319.53;;;17.90;67.95
76627;BME280;65519;53.230;10.390;2023-08-30T09:01:29;100318.41;;;17.82;68.70
76627;BME280;65519;53.230;10.390;2023-08-30T09:03:54;100319.53;;;17.90;67.64
76627;BME280;65519;53.230;10.390;2023-08-30T09:06:21;100314.16;;;17.94;67.97
76627;BME280;65519;53.230;10.390;2023-08-30T09:08:47;100309.59;;;17.98;68.67
76627;BME280;65519;53.230;10.390;2023-08-30T09:11:13;100315.78;;;18.03;67.35
76627;BME280;65519;53.230;10.390;2023-08-30T09:13:38;100311.38;;;18.11;68.18
76627;BME280;65519;53.230;10.390;2023-08-30T09:16:12;100313.00;;;18.03;67.29
76627;BME280;65519;53.230;10.390;2023-08-30T09:18:37;100319.97;;;18.09;67.89
76627;BME280;65519;53.230;10.390;2023-08-30T09:21:07;100304.88;;;18.15;67.88
76627;BME280;65519;53.230;10.390;2023-08-30T09:23:32;100312.66;;;18.13;67.93
76627;BME280;65519;53.230;10.390;2023-08-30T09:25:59;100311.66;;;18.27;68.05
76627;BME280;65519;53.230;10.390;2023-08-30T09:28:25;100300.97;;;18.16;68.22
76627;BME280;65519;53.230;10.390;2023-08-30T09:30:52;100307.16;;;18.13;69.03
76627;BME280;65519;53.230;10.390;2023-08-30T09:33:21;100307.63;;;18.07;68.71
76627;BME280;65519;53.230;10.390;2023-08-30T09:35:47;100306.34;;;18.13;68.36
76627;BME280;65519;53.230;10.390;2023-08-30T09:38:19;100308.25;;;18.21;67.90
76627;BME280;65519;53.230;10.390;2023-08-30T09:40:45;100309.06;;;18.21;67.75
76627;BME280;65519;53.230;10.390;2023-08-30T09:43:12;100307.56;;;18.33;67.96
76627;BME280;65519;53.230;10.390;2023-08-30T09:45:38;100300.09;;;18.33;67.31
76627;BME280;65519;53.230;10.390;2023-08-30T09:48:05;100303.78;;;18.46;66.90
76627;BME280;65519;53.230;10.390;2023-08-30T09:50:33;100303.78;;;18.46;66.53
76627;BME280;65519;53.230;10.390;2023-08-30T09:53:06;100297.50;;;18.37;67.06
76627;BME280;65519;53.230;10.390;2023-08-30T09:55:33;100292.91;;;18.49;66.23
76627;BME280;65519;53.230;10.390;2023-08-30T09:57:59;100294.03;;;18.48;66.55
76627;BME280;65519;53.230;10.390;2023-08-30T10:00:25;100290.13;;;18.58;65.93
76627;BME280;65519;53.230;10.390;2023-08-30T10:02:51;100291.75;;;18.59;66.01
76627;BME280;65519;53.230;10.390;2023-08-30T10:05:18;100293.38;;;18.60;66.70
76627;BME280;65519;53.230;10.390;2023-08-30T10:07:45;100288.84;;;18.47;64.64
76627;BME280;65519;53.230;10.390;2023-08-30T10:10:11;100286.56;;;18.57;63.83
76627;BME280;65519;53.230;10.390;2023-08-30T10:12:39;100285.03;;;18.69;64.39
76627;BME280;65519;53.230;10.390;2023-08-30T10:15:05;100281.78;;;18.67;64.80
76627;BME280;65519;53.230;10.390;2023-08-30T10:17:34;100285.22;;;18.55;63.53
76627;BME280;65519;53.230;10.390;2023-08-30T10:20:04;100291.75;;;18.59;64.15
76627;BME280;65519;53.230;10.390;2023-08-30T10:22:31;100285.78;;;18.78;64.88
76627;BME280;65519;53.230;10.390;2023-08-30T10:25:00;100276.97;;;18.84;64.11
76627;BME280;65519;53.230;10.390;2023-08-30T10:27:27;100274.69;;;18.86;63.58
76627;BME280;65519;53.230;10.390;2023-08-30T10:29:54;100271.38;;;18.93;62.52
76627;BME280;65519;53.230;10.390;2023-08-30T10:32:20;100273.97;;;18.98;62.11
76627;BME280;65519;53.230;10.390;2023-08-30T10:34:51;100273.97;;;19.19;61.50
76627;BME280;65519;53.230;10.390;2023-08-30T10:37:22;100273.41;;;19.05;61.78
76627;BME280;65519;53.230;10.390;2023-08-30T10:39:48;100278.44;;;19.11;62.45
76627;BME280;65519;53.230;10.390;2023-08-30T10:42:15;100278.03;;;19.01;61.96
76627;BME280;65519;53.230;10.390;2023-08-30T10:44:50;100276.72;;;18.98;61.81
76627;BME280;65519;53.230;10.390;2023-08-30T10:47:20;100274.13;;;19.02;61.93
76627;BME280;65519;53.230;10.390;2023-08-30T10:49:47;100271.75;;;19.12;61.51
76627;BME280;65519;53.230;10.390;2023-08-30T10:52:13;100272.00;;;18.99;61.88
76627;BME280;65519;53.230;10.390;2023-08-30T10:54:39;100275.03;;;19.06;61.67
76627;BME280;65519;53.230;10.390;2023-08-30T10:57:05;100281.38;;;19.06;62.32
76627;BME280;65519;53.230;10.390;2023-08-30T10:59:30;100267.84;;;18.92;62.48
76627;BME280;65519;53.230;10.390;2023-08-30T11:01:56;100274.69;;;18.86;61.41
76627;BME280;65519;53.230;10.390;2023-08-30T11:04:26;100271.13;;;18.86;60.59
76627;BME280;65519;53.230;10.390;2023-08-30T11:06:51;100269.59;;;18.97;60.22
76627;BME280;65519;53.230;10.390;2023-08-30T11:09:18;100267.22;;;19.08;59.93
76627;BME280;65519;53.230;10.390;2023-08-30T11:11:45;100267.78;;;19.22;59.95
76627;BME280;65519;53.230;10.390;2023-08-30T11:14:11;100270.47;;;19.10;60.18
76627;BME280;65519;53.230;10.390;2023-08-30T11:16:37;100259.16;;;19.03;60.42
76627;BME280;65519;53.230;10.390;2023-08-30T11:19:05;100262.53;;;19.08;59.49
76627;BME280;65519;53.230;10.390;2023-08-30T11:21:32;100259.22;;;19.15;59.01
76627;BME280;65519;53.230;10.390;2023-08-30T11:23:58;100267.22;;;19.08;59.53
76627;BME280;65519;53.230;10.390;2023-08-30T11:26:24;100256.91;;;19.17;59.07
76627;BME280;65519;53.230;10.390;2023-08-30T11:28:49;100264.00;;;19.06;58.41
76627;BME280;65519;53.230;10.390;2023-08-30T11:31:19;100252.41;;;18.91;59.71
76627;BME280;65519;53.230;10.390;2023-08-30T11:33:54;100255.19;;;18.91;58.55
76627;BME280;65519;53.230;10.390;2023-08-30T11:36:29;100257.72;;;18.96;58.33
76627;BME280;65519;53.230;10.390;2023-08-30T11:38:56;100251.81;;;19.07;58.45
76627;BME280;65519;53.230;10.390;2023-08-30T11:41:22;100260.41;;;18.84;59.81
76627;BME280;65519;53.230;10.390;2023-08-30T11:43:48;100249.09;;;18.98;61.06
76627;BME280;65519;53.230;10.390;2023-08-30T11:46:14;100255.22;;;19.04;61.78
76627;BME280;65519;53.230;10.390;2023-08-30T11:48:40;100245.34;;;19.03;62.28
76627;BME280;65519;53.230;10.390;2023-08-30T11:51:07;100240.41;;;18.87;63.38
76627;BME280;65519;53.230;10.390;2023-08-30T11:53:33;100238.59;;;18.91;63.25
76627;BME280;65519;53.230;10.390;2023-08-30T11:55:59;100241.97;;;18.97;62.73
76627;BME280;65519;53.230;10.390;2023-08-30T11:58:24;100246.50;;;19.02;62.67
76627;BME280;65519;53.230;10.390;2023-08-30T12:00:51;100244.13;;;18.91;62.25
76627;BME280;65519;53.230;10.390;2023-08-30T12:03:19;100235.06;;;18.82;62.66
76627;BME280;65519;53.230;10.390;2023-08-30T12:05:50;100242.09;;;18.80;62.39
76627;BME280;65519;53.230;10.390;2023-08-30T12:08:27;100241.94;;;18.76;62.86
76627;BME280;65519;53.230;10.390;2023-08-30T12:10:54;100236.59;;;18.71;62.73
76627;BME280;65519;53.230;10.390;2023-08-30T12:13:31;100236.59;;;18.71;62.23
76627;BME280;65519;53.230;10.390;2023-08-30T12:15:58;100245.44;;;18.56;62.39
76627;BME280;65519;53.230;10.390;2023-08-30T12:18:26;100243.13;;;18.67;61.88
76627;BME280;65519;53.230;10.390;2023-08-30T12:20:56;100243.81;;;18.64;62.38
76627;BME280;65519;53.230;10.390;2023-08-30T12:23:22;100230.16;;;18.67;62.44
76627;BME280;65519;53.230;10.390;2023-08-30T12:26:08;100236.25;;;18.81;61.56
76627;BME280;65519;53.230;10.390;2023-08-30T12:28:35;100232.91;;;18.67;61.54
76627;BME280;65519;53.230;10.390;2023-08-30T12:31:02;100232.16;;;18.58;62.96
76627;BME280;65519;53.230;10.390;2023-08-30T12:33:29;100232.53;;;18.77;62.58
76627;BME280;65519;53.230;10.390;2023-08-30T12:35:55;100213.75;;;18.62;61.29
76627;BME280;65519;53.230;10.390;2023-08-30T12:38:21;100210.00;;;18.67;62.43
76627;BME280;65519;53.230;10.390;2023-08-30T12:40:49;100217.25;;;18.80;62.67
76627;BME280;65519;53.230;10.390;2023-08-30T12:43:15;100216.63;;;18.95;61.96